Time;durP1;ratioP1;P1;durP2;ratioP2;P2;SDS_P1;SDS_P2;PMS_P1;PMS_P2;Temp;Humidity;BMP_temperature;BMP_pressure;BME280_temperature;BME280_humidity;BME280_pressure;Samples;Min_cycle;Max_cycle;Signal;HPM_P1;HPM_P2
2021/10/05 00:02:22;;;;;;;25.63;4.93;;;17.10;90.80;;;;;;5018400;28;20120;-59
2021/10/05 00:04:47;;;;;;;33.10;5.78;;;17.00;90.70;;;;;;5020561;28;20569;-60
2021/10/05 00:07:13;;;;;;;27.02;4.90;;;17.00;90.70;;;;;;5019816;28;20057;-60
2021/10/05 00:09:38;;;;;;;24.45;5.00;;;17.00;90.80;;;;;;5020054;28;20454;-60
2021/10/05 00:12:04;;;;;;;21.45;4.60;;;17.00;90.80;;;;;;5022092;28;20644;-59
2021/10/05 00:14:30;;;;;;;28.52;4.90;;;17.00;90.80;;;;;;5021414;28;20121;-60
2021/10/05 00:16:55;;;;;;;16.75;3.85;;;17.00;90.80;;;;;;5020303;28;21009;-60
2021/10/05 00:19:21;;;;;;;16.83;4.38;;;17.00;90.80;;;;;;5021070;28;20029;-60
2021/10/05 00:21:46;;;;;;;12.65;3.80;;;17.00;90.80;;;;;;5017931;28;20171;-59
2021/10/05 00:24:12;;;;;;;23.80;3.40;;;16.90;90.80;;;;;;5020584;28;20013;-60
2021/10/05 00:26:38;;;;;;;17.90;3.40;;;16.90;90.80;;;;;;5021057;28;20101;-59
2021/10/05 00:29:04;;;;;;;16.58;3.47;;;16.90;90.80;;;;;;5021200;28;20075;-60
2021/10/05 00:31:30;;;;;;;16.42;3.38;;;16.90;90.80;;;;;;5022333;28;20037;-60
2021/10/05 00:33:55;;;;;;;18.77;3.35;;;16.90;90.90;;;;;;5020978;28;20040;-59
2021/10/05 00:36:21;;;;;;;14.27;3.58;;;16.90;90.90;;;;;;5017701;28;20508;-59
2021/10/05 00:38:46;;;;;;;14.07;3.10;;;16.90;90.90;;;;;;5019589;28;20028;-60
2021/10/05 00:41:12;;;;;;;11.95;3.88;;;16.90;90.90;;;;;;5022508;28;20104;-60
2021/10/05 00:43:37;;;;;;;14.95;3.03;;;16.80;90.90;;;;;;5023188;28;20033;-58
2021/10/05 00:46:03;;;;;;;13.75;2.83;;;16.80;90.90;;;;;;5005003;28;20038;-59
2021/10/05 00:48:28;;;;;;;13.68;3.33;;;16.80;90.90;;;;;;5022135;28;20046;-59
2021/10/05 00:50:54;;;;;;;12.55;2.83;;;16.80;90.90;;;;;;5020853;28;20034;-60
2021/10/05 00:53:19;;;;;;;14.77;3.13;;;16.80;90.90;;;;;;5022525;28;20041;-59
2021/10/05 00:55:45;;;;;;;12.90;2.67;;;16.90;91.00;;;;;;5024682;28;20219;-60
2021/10/05 00:58:10;;;;;;;13.95;2.78;;;16.80;90.90;;;;;;5025555;28;20132;-59
2021/10/05 01:00:37;;;;;;;14.85;2.85;;;16.80;91.00;;;;;;5006884;28;20107;-60
2021/10/05 01:03:03;;;;;;;10.80;2.60;;;16.80;91.00;;;;;;5024233;28;20112;-60
2021/10/05 01:05:29;;;;;;;15.63;3.05;;;16.80;91.00;;;;;;5023008;28;20143;-59
2021/10/05 01:07:54;;;;;;;8.65;2.47;;;16.70;91.00;;;;;;5024415;28;20117;-59
2021/10/05 01:10:20;;;;;;;9.38;2.45;;;16.70;91.00;;;;;;5024530;28;20077;-59
2021/10/05 01:12:49;;;;;;;8.32;2.60;;;16.70;91.00;;;;;;5022854;28;20041;-60
2021/10/05 01:15:16;;;;;;;11.65;2.88;;;16.70;91.00;;;;;;5023224;28;20037;-61
2021/10/05 01:17:42;;;;;;;12.30;2.38;;;16.70;91.00;;;;;;5023701;28;20065;-59
2021/10/05 01:20:08;;;;;;;5.72;2.50;;;16.70;91.00;;;;;;5027628;28;20109;-60
2021/10/05 01:22:33;;;;;;;5.25;2.00;;;16.70;91.00;;;;;;5027176;28;20079;-60
2021/10/05 01:25:12;;;;;;;9.20;2.15;;;16.70;91.10;;;;;;5023219;28;20049;-59
2021/10/05 01:27:42;;;;;;;14.75;2.72;;;16.70;91.10;;;;;;5022571;28;20049;-60
2021/10/05 01:30:08;;;;;;;5.53;2.10;;;16.70;91.10;;;;;;5024403;28;20261;-60
2021/10/05 01:32:33;;;;;;;7.78;2.45;;;16.60;91.10;;;;;;5024088;28;20227;-60
2021/10/05 01:34:59;;;;;;;8.20;2.40;;;16.60;91.10;;;;;;5023027;28;20029;-59
2021/10/05 01:37:24;;;;;;;19.27;3.03;;;16.60;91.10;;;;;;5024495;28;20088;-60
2021/10/05 01:39:50;;;;;;;5.38;2.50;;;16.60;91.10;;;;;;5021656;28;20080;-60
2021/10/05 01:42:16;;;;;;;7.10;2.28;;;16.60;91.10;;;;;;5024561;28;20124;-60
2021/10/05 01:44:41;;;;;;;6.57;2.40;;;16.60;91.10;;;;;;5024171;28;20466;-60
2021/10/05 01:47:07;;;;;;;11.43;2.50;;;16.60;91.10;;;;;;5023033;28;20049;-59
2021/10/05 01:49:33;;;;;;;11.70;2.58;;;16.60;91.10;;;;;;5022852;28;20029;-60
2021/10/05 01:51:58;;;;;;;6.60;2.40;;;16.50;91.10;;;;;;5022600;28;20125;-59
2021/10/05 01:54:24;;;;;;;14.18;3.47;;;16.50;91.10;;;;;;5003686;28;20041;-59
2021/10/05 01:56:49;;;;;;;12.77;3.75;;;16.50;91.10;;;;;;4987095;28;20473;-58
2021/10/05 01:59:15;;;;;;;10.55;3.97;;;16.50;91.10;;;;;;5021891;28;20495;-61
2021/10/05 02:01:41;;;;;;;8.60;3.00;;;16.50;91.20;;;;;;5023978;28;20469;-59
2021/10/05 02:04:07;;;;;;;10.55;3.00;;;16.50;91.20;;;;;;5024773;28;20038;-59
2021/10/05 02:06:33;;;;;;;8.30;3.40;;;16.40;91.20;;;;;;5019255;28;20125;-59
2021/10/05 02:08:58;;;;;;;9.45;3.15;;;16.50;91.20;;;;;;5024194;28;20101;-59
2021/10/05 02:11:24;;;;;;;7.25;3.30;;;16.40;91.20;;;;;;5021918;28;20095;-60
2021/10/05 02:13:49;;;;;;;3.83;2.65;;;16.40;91.30;;;;;;5025151;28;21069;-60
2021/10/05 02:16:15;;;;;;;8.02;3.28;;;16.40;91.30;;;;;;5004617;28;20168;-59
2021/10/05 02:18:46;;;;;;;5.57;2.78;;;16.40;91.30;;;;;;5022942;28;20101;-59
2021/10/05 02:21:12;;;;;;;7.75;2.97;;;16.40;91.30;;;;;;5020991;28;20025;-60
2021/10/05 02:26:22;;;;;;;7.90;3.50;;;16.40;91.30;;;;;;5023989;28;20060;-59
2021/10/05 02:28:48;;;;;;;8.63;2.75;;;16.40;91.40;;;;;;5022397;28;20037;-60
2021/10/05 02:31:13;;;;;;;8.48;3.13;;;16.40;91.30;;;;;;5022629;28;20026;-60
2021/10/05 02:33:39;;;;;;;7.63;2.85;;;16.40;91.40;;;;;;5020378;28;20048;-59
2021/10/05 02:36:04;;;;;;;5.38;3.05;;;16.40;91.40;;;;;;5016815;28;20021;-60
2021/10/05 02:38:30;;;;;;;7.07;2.75;;;16.40;91.50;;;;;;5022908;28;20033;-59
2021/10/05 02:40:55;;;;;;;7.63;3.25;;;16.30;91.40;;;;;;5023988;28;20456;-59
2021/10/05 02:43:21;;;;;;;6.07;3.65;;;16.30;91.40;;;;;;5021235;28;20140;-59
2021/10/05 02:45:46;;;;;;;8.00;4.20;;;16.30;91.50;;;;;;5019972;28;20117;-60
2021/10/05 02:48:12;;;;;;;10.70;3.65;;;16.30;91.50;;;;;;5020972;28;20029;-60
2021/10/05 02:50:37;;;;;;;9.27;3.70;;;16.30;91.60;;;;;;4989245;28;20039;-59
2021/10/05 02:53:03;;;;;;;6.95;3.92;;;16.30;91.60;;;;;;5021724;28;20224;-59
2021/10/05 02:55:28;;;;;;;5.88;3.55;;;16.30;91.60;;;;;;5022550;28;20140;-59
2021/10/05 02:57:54;;;;;;;8.13;3.65;;;16.30;91.60;;;;;;5018990;28;20124;-59
2021/10/05 03:00:19;;;;;;;5.60;3.58;;;16.30;91.70;;;;;;5022293;28;20651;-61
2021/10/05 03:02:45;;;;;;;4.75;3.60;;;16.30;91.70;;;;;;5020436;28;20516;-59
2021/10/05 03:05:10;;;;;;;6.32;3.88;;;16.20;91.70;;;;;;5024065;28;20044;-60
2021/10/05 03:07:36;;;;;;;8.35;3.50;;;16.20;91.70;;;;;;5022294;28;20128;-60
2021/10/05 03:10:02;;;;;;;6.00;3.33;;;16.20;91.70;;;;;;5003723;28;20037;-60
2021/10/05 03:12:28;;;;;;;6.22;3.55;;;16.20;91.80;;;;;;5020187;28;20758;-60
2021/10/05 03:14:53;;;;;;;6.57;3.65;;;16.20;91.80;;;;;;5020747;28;20105;-59
2021/10/05 03:17:19;;;;;;;4.57;3.33;;;16.10;91.80;;;;;;5020649;28;20110;-60
2021/10/05 03:19:44;;;;;;;4.35;2.95;;;16.20;91.80;;;;;;5022565;28;20136;-60
2021/10/05 03:22:11;;;;;;;4.03;3.15;;;16.10;91.80;;;;;;5004020;28;20140;-59
2021/10/05 03:24:36;;;;;;;4.07;3.03;;;16.10;91.80;;;;;;5019629;28;20052;-61
2021/10/05 03:27:02;;;;;;;5.88;3.55;;;16.10;91.80;;;;;;5021773;28;20042;-60
2021/10/05 03:29:27;;;;;;;6.15;3.15;;;16.10;91.80;;;;;;5005398;28;20038;-60
2021/10/05 03:31:53;;;;;;;5.65;3.35;;;16.10;91.80;;;;;;5021737;28;20029;-60
2021/10/05 03:34:18;;;;;;;4.95;3.17;;;16.10;91.90;;;;;;5022268;28;20029;-59
2021/10/05 03:36:44;;;;;;;3.30;2.58;;;16.10;91.90;;;;;;5020433;28;20029;-60
2021/10/05 03:39:09;;;;;;;4.00;2.78;;;16.10;91.90;;;;;;5019740;28;20151;-59
2021/10/05 03:41:35;;;;;;;6.07;3.10;;;16.10;91.90;;;;;;5021774;28;20171;-59
2021/10/05 03:44:01;;;;;;;3.80;2.90;;;16.00;91.90;;;;;;5022231;28;20747;-60
2021/10/05 03:46:26;;;;;;;3.60;2.30;;;16.00;91.90;;;;;;5019816;28;20070;-58
2021/10/05 03:48:52;;;;;;;4.47;2.92;;;16.00;91.90;;;;;;5020787;28;20060;-59
2021/10/05 03:51:17;;;;;;;5.95;2.67;;;15.90;91.90;;;;;;5018349;28;20050;-60
2021/10/05 03:53:43;;;;;;;4.13;2.78;;;16.00;92.00;;;;;;5019222;28;20147;-60
2021/10/05 03:56:08;;;;;;;4.07;2.65;;;16.00;92.00;;;;;;4987553;28;20425;-60
2021/10/05 03:58:34;;;;;;;3.38;2.58;;;15.90;92.00;;;;;;5021899;28;20044;-59
2021/10/05 04:01:03;;;;;;;3.00;2.58;;;15.90;92.00;;;;;;5019481;28;20117;-60
2021/10/05 04:03:29;;;;;;;4.10;2.33;;;15.90;92.00;;;;;;5020817;28;20438;-59
2021/10/05 04:05:54;;;;;;;5.93;2.90;;;15.90;92.00;;;;;;5020694;28;20085;-60
2021/10/05 04:08:20;;;;;;;5.38;2.40;;;15.90;92.00;;;;;;5022608;28;20030;-59
2021/10/05 04:10:45;;;;;;;2.67;2.47;;;15.90;92.00;;;;;;5020590;28;20040;-60
2021/10/05 04:13:11;;;;;;;4.20;2.42;;;15.90;92.00;;;;;;5020842;28;20732;-60
2021/10/05 04:15:36;;;;;;;2.92;2.40;;;15.90;92.00;;;;;;5019554;28;20029;-60
2021/10/05 04:18:02;;;;;;;2.30;2.00;;;15.90;92.10;;;;;;5018452;28;20111;-59
2021/10/05 04:20:28;;;;;;;3.72;2.20;;;15.90;92.10;;;;;;5020370;28;20040;-59
2021/10/05 04:22:53;;;;;;;2.85;2.33;;;15.80;92.00;;;;;;5020103;28;20039;-59
2021/10/05 04:25:19;;;;;;;3.05;2.40;;;15.80;92.10;;;;;;5020205;28;20116;-59
2021/10/05 04:27:44;;;;;;;2.88;2.22;;;15.80;92.10;;;;;;5021627;28;20496;-60
2021/10/05 04:30:10;;;;;;;2.55;2.13;;;15.80;92.10;;;;;;5020837;28;20056;-60
2021/10/05 04:32:36;;;;;;;2.42;2.15;;;15.80;92.10;;;;;;5019030;28;20423;-59
2021/10/05 04:35:02;;;;;;;3.83;2.10;;;15.80;92.10;;;;;;5021340;28;20030;-59
2021/10/05 04:37:27;;;;;;;4.03;2.13;;;15.80;92.10;;;;;;5021551;28;20033;-59
2021/10/05 04:39:53;;;;;;;2.20;2.00;;;15.80;92.10;;;;;;5020481;28;20017;-60
2021/10/05 04:42:18;;;;;;;2.47;2.15;;;15.70;92.10;;;;;;5019296;28;20709;-59
2021/10/05 04:44:44;;;;;;;2.35;1.92;;;15.70;92.20;;;;;;5003310;28;20485;-59
2021/10/05 04:47:09;;;;;;;3.00;1.98;;;15.70;92.50;;;;;;5019172;28;20082;-60
2021/10/05 04:49:35;;;;;;;5.30;2.08;;;15.70;92.20;;;;;;5020897;28;20460;-59
2021/10/05 04:52:00;;;;;;;4.15;2.00;;;15.70;92.20;;;;;;5016562;28;20041;-60
2021/10/05 04:54:26;;;;;;;5.55;1.88;;;15.70;92.20;;;;;;5015610;28;20033;-59
2021/10/05 04:56:51;;;;;;;3.85;2.05;;;15.70;92.20;;;;;;5017586;28;20040;-60
2021/10/05 04:59:18;;;;;;;2.33;1.65;;;15.70;92.20;;;;;;5015618;28;20033;-60
2021/10/05 05:01:43;;;;;;;3.20;1.80;;;15.60;92.20;;;;;;5015975;28;20360;-59
2021/10/05 05:04:10;;;;;;;3.72;2.08;;;15.70;92.30;;;;;;5000078;28;20021;-60
2021/10/05 05:06:36;;;;;;;4.22;2.67;;;15.60;92.30;;;;;;5000299;28;20021;-59
2021/10/05 05:09:02;;;;;;;3.72;2.88;;;15.60;92.30;;;;;;5016031;28;20038;-60
2021/10/05 05:11:27;;;;;;;4.75;3.13;;;15.60;92.30;;;;;;5002380;28;20060;-60
2021/10/05 05:13:53;;;;;;;2.70;2.50;;;15.60;92.40;;;;;;5018019;28;20090;-59
2021/10/05 05:16:18;;;;;;;2.90;2.60;;;15.60;92.30;;;;;;5019955;28;20139;-59
2021/10/05 05:18:44;;;;;;;2.92;2.40;;;15.60;92.30;;;;;;5018950;28;20392;-60
2021/10/05 05:21:09;;;;;;;5.93;2.83;;;15.60;92.30;;;;;;5020576;28;20544;-59
2021/10/05 05:23:35;;;;;;;2.78;2.30;;;15.60;92.30;;;;;;5015381;28;20046;-60
2021/10/05 05:26:00;;;;;;;2.80;2.50;;;15.60;92.30;;;;;;5019554;28;20152;-60
2021/10/05 05:28:26;;;;;;;3.10;2.58;;;15.50;92.30;;;;;;5021687;28;20044;-60
2021/10/05 05:30:51;;;;;;;2.90;2.20;;;15.50;92.50;;;;;;5020392;28;20044;-61
2021/10/05 05:33:17;;;;;;;3.97;2.35;;;15.60;92.30;;;;;;5018444;28;20308;-60
2021/10/05 05:35:42;;;;;;;3.08;2.00;;;15.50;92.30;;;;;;5020706;28;20041;-60
2021/10/05 05:38:08;;;;;;;3.58;2.38;;;15.50;92.30;;;;;;5019624;28;20148;-61
2021/10/05 05:40:33;;;;;;;2.05;1.85;;;15.50;92.20;;;;;;5019703;28;20055;-60
2021/10/05 05:42:59;;;;;;;2.35;1.95;;;15.50;92.20;;;;;;5023664;28;20481;-60
2021/10/05 05:45:24;;;;;;;2.38;2.17;;;15.50;92.30;;;;;;5022262;28;20025;-60
2021/10/05 05:47:50;;;;;;;2.92;1.92;;;15.50;92.30;;;;;;5021698;28;20052;-60
2021/10/05 05:50:16;;;;;;;2.63;1.98;;;15.50;92.30;;;;;;5023118;28;20028;-59
2021/10/05 05:52:41;;;;;;;2.20;2.00;;;15.50;92.30;;;;;;5021611;28;20038;-60
2021/10/05 05:55:08;;;;;;;4.38;1.90;;;15.50;92.30;;;;;;5024246;28;20037;-58
2021/10/05 05:57:33;;;;;;;2.15;1.50;;;15.50;92.30;;;;;;5022108;28;20037;-61
2021/10/05 05:59:59;;;;;;;2.30;1.80;;;15.50;92.30;;;;;;5006454;28;20025;-61
2021/10/05 06:02:25;;;;;;;2.90;1.98;;;15.50;92.30;;;;;;5022987;28;20595;-60
2021/10/05 06:04:50;;;;;;;1.50;1.30;;;15.50;92.30;;;;;;5024247;28;20115;-60
2021/10/05 06:07:16;;;;;;;2.17;1.50;;;15.50;92.20;;;;;;5023289;28;20485;-60
2021/10/05 06:09:41;;;;;;;2.53;1.70;;;15.50;92.20;;;;;;5022604;28;20029;-60
2021/10/05 06:12:11;;;;;;;2.38;1.70;;;15.50;92.20;;;;;;5023986;28;20105;-60
2021/10/05 06:14:36;;;;;;;3.38;2.10;;;15.50;92.20;;;;;;5022814;28;20021;-59
2021/10/05 06:17:04;;;;;;;5.75;1.70;;;15.50;92.20;;;;;;5024151;28;20032;-60
2021/10/05 06:19:30;;;;;;;2.00;1.55;;;15.50;92.20;;;;;;5003107;28;20112;-59
2021/10/05 06:21:55;;;;;;;6.07;2.00;;;15.50;92.20;;;;;;5023235;28;20116;-60
2021/10/05 06:24:21;;;;;;;13.25;2.42;;;15.50;92.20;;;;;;5015993;28;20143;-59
2021/10/05 06:26:46;;;;;;;7.15;2.30;;;15.50;92.00;;;;;;5018145;28;20096;-60
2021/10/05 06:29:12;;;;;;;6.35;2.55;;;15.50;92.20;;;;;;5003132;28;20121;-60
2021/10/05 06:31:37;;;;;;;11.95;2.50;;;15.50;92.20;;;;;;5021160;28;20048;-60
2021/10/05 06:34:03;;;;;;;5.55;2.45;;;15.50;92.10;;;;;;5018028;28;20392;-60
2021/10/05 06:36:28;;;;;;;7.20;2.83;;;15.60;92.10;;;;;;5024955;28;20037;-60
2021/10/05 06:38:54;;;;;;;7.35;2.15;;;15.60;92.10;;;;;;5020769;28;20503;-60
2021/10/05 06:41:21;;;;;;;7.88;2.63;;;15.60;92.10;;;;;;5022769;28;20042;-60
2021/10/05 06:43:47;;;;;;;17.38;2.63;;;15.60;92.00;;;;;;5022399;28;20026;-60
2021/10/05 06:46:12;;;;;;;11.55;2.50;;;15.60;92.00;;;;;;5022353;28;20215;-60
2021/10/05 06:48:38;;;;;;;7.60;2.58;;;15.60;92.10;;;;;;5022726;28;20333;-60
2021/10/05 06:51:03;;;;;;;14.40;2.72;;;15.60;92.10;;;;;;5022450;28;20457;-60
2021/10/05 06:53:29;;;;;;;11.75;2.50;;;15.70;92.10;;;;;;4998801;28;20041;-60
2021/10/05 06:55:55;;;;;;;6.30;2.60;;;15.60;92.10;;;;;;5020323;28;20034;-60
2021/10/05 06:58:20;;;;;;;14.20;2.65;;;15.70;92.10;;;;;;5021005;28;20029;-60
2021/10/05 07:00:46;;;;;;;22.42;3.15;;;15.70;92.20;;;;;;5021833;28;20147;-61
2021/10/05 07:03:11;;;;;;;12.60;2.97;;;15.70;92.00;;;;;;5019768;28;20108;-60
2021/10/05 07:05:37;;;;;;;13.93;2.90;;;15.70;91.90;;;;;;5018700;28;20235;-60
2021/10/05 07:08:08;;;;;;;22.38;3.08;;;15.70;91.90;;;;;;5017374;28;20147;-59
2021/10/05 07:10:35;;;;;;;27.35;3.70;;;15.70;91.80;;;;;;5016459;28;20093;-60
2021/10/05 07:13:00;;;;;;;35.22;4.80;;;15.80;91.90;;;;;;5021374;28;20155;-59
2021/10/05 07:15:26;;;;;;;34.72;3.22;;;15.70;91.80;;;;;;5019241;28;20029;-59
2021/10/05 07:17:53;;;;;;;40.50;3.67;;;15.80;91.80;;;;;;5018511;28;20026;-59
2021/10/05 07:20:18;;;;;;;29.15;3.70;;;15.80;91.80;;;;;;5017509;28;20041;-60
2021/10/05 07:22:44;;;;;;;29.95;3.63;;;15.80;91.80;;;;;;4984686;28;20033;-59
2021/10/05 07:25:09;;;;;;;28.02;4.20;;;15.80;91.80;;;;;;5002991;28;20041;-59
2021/10/05 07:27:35;;;;;;;36.45;4.15;;;15.80;91.90;;;;;;5017414;28;20053;-60
2021/10/05 07:30:03;;;;;;;24.60;4.03;;;15.80;91.90;;;;;;4999996;28;20037;-60
2021/10/05 07:32:29;;;;;;;20.75;2.45;;;15.80;91.80;;;;;;4998989;28;20136;-60
2021/10/05 07:34:54;;;;;;;20.08;2.92;;;15.80;91.70;;;;;;4999090;28;20695;-61
2021/10/05 07:37:20;;;;;;;26.50;3.15;;;15.80;91.70;;;;;;5021295;28;20033;-59
2021/10/05 07:39:45;;;;;;;17.88;2.75;;;15.80;91.70;;;;;;5018834;28;20026;-60
2021/10/05 07:42:13;;;;;;;15.07;2.78;;;15.80;91.70;;;;;;5020399;28;20041;-62
2021/10/05 07:44:39;;;;;;;20.10;2.92;;;15.80;91.70;;;;;;4985957;28;20400;-62
2021/10/05 07:47:04;;;;;;;15.18;2.38;;;15.80;91.60;;;;;;5017842;28;20037;-62
2021/10/05 07:49:32;;;;;;;21.60;2.65;;;15.80;91.60;;;;;;5020432;28;20539;-62
2021/10/05 07:51:59;;;;;;;31.50;3.00;;;15.80;91.60;;;;;;5018581;28;20025;-62
2021/10/05 07:54:24;;;;;;;23.40;3.33;;;15.90;91.60;;;;;;5019384;28;20040;-62
2021/10/05 07:56:50;;;;;;;25.02;3.30;;;15.80;91.60;;;;;;5020116;28;20025;-60
2021/10/05 07:59:15;;;;;;;18.10;2.95;;;15.80;91.60;;;;;;5000392;28;20037;-61
2021/10/05 08:01:41;;;;;;;49.10;5.82;;;15.90;91.60;;;;;;5018531;28;20348;-62
2021/10/05 08:04:06;;;;;;;59.03;5.88;;;15.80;91.60;;;;;;5015482;28;20650;-61
2021/10/05 08:06:32;;;;;;;41.00;4.88;;;15.90;91.60;;;;;;5021084;28;20037;-62
2021/10/05 08:08:57;;;;;;;45.20;6.47;;;15.90;91.60;;;;;;5017352;28;20025;-61
2021/10/05 08:11:23;;;;;;;40.15;5.35;;;15.90;91.50;;;;;;5012141;28;20032;-61
2021/10/05 08:13:50;;;;;;;38.22;4.63;;;15.90;91.50;;;;;;5015877;28;20070;-62
2021/10/05 08:16:17;;;;;;;60.38;6.75;;;15.90;91.50;;;;;;5018101;28;20123;-61
2021/10/05 08:18:43;;;;;;;23.00;4.20;;;15.90;91.60;;;;;;5020139;28;20032;-62
2021/10/05 08:21:11;;;;;;;40.38;4.72;;;15.90;91.50;;;;;;5016338;28;20369;-62
2021/10/05 08:23:37;;;;;;;37.60;5.03;;;16.00;91.50;;;;;;5000703;28;20017;-62
2021/10/05 08:26:03;;;;;;;58.47;5.90;;;16.00;91.50;;;;;;4986147;28;20136;-61
2021/10/05 08:28:28;;;;;;;73.63;7.28;;;16.00;91.60;;;;;;5019831;28;20120;-61
2021/10/05 08:30:53;;;;;;;66.07;7.13;;;16.00;91.70;;;;;;5016390;28;20476;-62
2021/10/05 08:33:19;;;;;;;73.45;7.95;;;16.00;91.80;;;;;;5004745;28;20045;-62
2021/10/05 08:35:45;;;;;;;63.70;7.72;;;16.10;91.90;;;;;;5019471;28;20037;-59
2021/10/05 08:38:10;;;;;;;72.45;7.32;;;16.10;91.80;;;;;;5019345;28;20045;-60
2021/10/05 08:40:36;;;;;;;67.43;7.95;;;16.10;91.70;;;;;;5019860;28;20119;-58
2021/10/05 08:43:01;;;;;;;77.45;8.50;;;16.10;91.70;;;;;;5003188;28;20112;-60
2021/10/05 08:45:27;;;;;;;62.20;6.65;;;16.10;91.70;;;;;;5021229;28;20116;-60
2021/10/05 08:47:52;;;;;;;81.55;9.02;;;16.20;91.70;;;;;;5021519;28;20510;-60
2021/10/05 08:50:18;;;;;;;77.18;7.32;;;16.20;92.00;;;;;;5021119;28;20116;-60
2021/10/05 08:52:44;;;;;;;81.65;8.27;;;16.20;92.00;;;;;;5019091;28;20042;-60
2021/10/05 08:55:10;;;;;;;74.70;8.40;;;16.30;92.00;;;;;;5020511;28;20035;-60
2021/10/05 08:57:35;;;;;;;87.65;8.07;;;16.30;92.20;;;;;;5018297;28;20029;-59
2021/10/05 09:00:04;;;;;;;98.15;9.25;;;16.30;92.00;;;;;;5018786;28;20033;-59
2021/10/05 09:02:44;;;;;;;88.55;9.50;;;16.40;92.00;;;;;;5017031;28;20083;-60
2021/10/05 09:05:13;;;;;;;88.03;9.32;;;16.40;92.00;;;;;;5018113;28;20449;-60
2021/10/05 09:07:44;;;;;;;62.15;7.72;;;16.40;92.00;;;;;;5000861;28;20036;-60
2021/10/05 09:10:09;;;;;;;81.45;8.35;;;16.40;91.90;;;;;;5016146;28;20124;-59
2021/10/05 09:12:35;;;;;;;105.45;10.95;;;16.40;91.90;;;;;;5021093;28;20021;-60
2021/10/05 09:15:01;;;;;;;79.43;8.95;;;16.40;91.90;;;;;;5000556;28;20030;-59
2021/10/05 09:17:28;;;;;;;63.33;8.38;;;16.40;91.80;;;;;;5020244;28;20072;-59
2021/10/05 09:19:54;;;;;;;79.47;8.23;;;16.40;91.80;;;;;;5005603;28;20025;-60
2021/10/05 09:22:22;;;;;;;68.18;7.10;;;16.40;91.80;;;;;;5020208;28;20041;-60
2021/10/05 09:24:49;;;;;;;59.25;6.93;;;16.30;91.70;;;;;;5018254;28;20076;-59
2021/10/05 09:27:15;;;;;;;65.57;7.93;;;16.40;91.80;;;;;;5021117;28;20086;-59
2021/10/05 09:29:40;;;;;;;62.00;7.78;;;16.40;91.80;;;;;;5021419;28;20025;-60
2021/10/05 09:32:13;;;;;;;65.50;7.13;;;16.40;91.70;;;;;;5020242;28;20084;-59
2021/10/05 09:34:45;;;;;;;69.60;7.88;;;16.40;91.70;;;;;;5018759;28;20099;-62
2021/10/05 09:37:12;;;;;;;105.00;10.80;;;16.40;91.60;;;;;;5018878;28;20036;-62
2021/10/05 09:39:40;;;;;;;96.63;11.85;;;16.40;91.60;;;;;;5020810;28;20338;-62
2021/10/05 09:42:06;;;;;;;120.93;12.32;;;16.40;91.80;;;;;;5022250;28;20021;-63
2021/10/05 09:44:31;;;;;;;137.55;11.98;;;16.40;91.90;;;;;;5020911;28;20041;-62
2021/10/05 09:46:57;;;;;;;85.72;9.00;;;16.30;91.90;;;;;;5021296;28;20037;-62
2021/10/05 09:49:24;;;;;;;93.25;10.00;;;16.40;91.80;;;;;;5020203;28;20373;-62
2021/10/05 09:52:00;;;;;;;97.75;9.70;;;16.40;91.90;;;;;;5020772;28;20095;-63
2021/10/05 09:54:26;;;;;;;;;;;16.40;91.90;;;;;;5019338;28;20041;-62
2021/10/05 09:56:52;;;;;;;110.97;11.02;;;16.50;91.80;;;;;;5019496;28;20083;-59
2021/10/05 09:59:17;;;;;;;97.00;9.50;;;16.40;91.80;;;;;;5002919;28;20108;-60
2021/10/05 10:01:43;;;;;;;112.35;10.68;;;16.40;92.00;;;;;;5021620;28;20034;-60
2021/10/05 10:04:09;;;;;;;81.63;10.20;;;16.50;92.10;;;;;;5009513;28;20171;-59
2021/10/05 10:06:36;;;;;;;99.13;9.90;;;16.50;92.00;;;;;;5021201;28;20523;-60
2021/10/05 10:09:02;;;;;;;86.57;10.15;;;16.50;92.10;;;;;;5021336;28;20678;-61
2021/10/05 10:11:28;;;;;;;113.10;11.00;;;16.50;92.20;;;;;;5021867;28;20049;-61
2021/10/05 10:13:54;;;;;;;69.60;8.77;;;16.50;92.20;;;;;;5021311;28;20499;-59
2021/10/05 10:16:20;;;;;;;71.65;7.72;;;16.50;92.30;;;;;;5020050;28;20373;-59
2021/10/05 10:18:53;;;;;;;83.97;8.73;;;16.50;92.20;;;;;;5021936;28;20026;-59
2021/10/05 10:21:25;;;;;;;79.15;9.45;;;16.50;92.50;;;;;;5021884;28;20076;-59
2021/10/05 10:24:08;;;;;;;73.05;8.52;;;16.60;92.50;;;;;;5017072;28;20072;-58
2021/10/05 10:26:34;;;;;;;62.97;7.78;;;16.50;92.50;;;;;;5002898;28;20539;-59
2021/10/05 10:28:59;;;;;;;77.10;8.25;;;16.60;92.70;;;;;;5002922;28;20057;-58
2021/10/05 10:31:30;;;;;;;88.05;9.15;;;16.60;92.60;;;;;;5016676;28;20130;-59
2021/10/05 10:33:55;;;;;;;77.95;8.75;;;16.60;92.60;;;;;;5019156;28;20029;-59
2021/10/05 10:36:34;;;;;;;278.25;26.08;;;16.60;92.60;;;;;;5017160;28;20187;-59
2021/10/05 10:39:10;;;;;;;112.47;12.82;;;16.60;92.60;;;;;;5018198;28;20033;-59
2021/10/05 10:41:39;;;;;;;81.25;9.05;;;16.70;92.50;;;;;;5004062;28;20588;-59
2021/10/05 10:44:05;;;;;;;57.50;7.63;;;16.70;92.50;;;;;;5018151;28;20444;-60
2021/10/05 10:46:34;;;;;;;80.88;8.68;;;16.70;92.80;;;;;;5017437;28;20109;-58
2021/10/05 10:48:59;;;;;;;80.10;6.93;;;16.70;92.90;;;;;;5002493;28;20060;-60
2021/10/05 10:51:29;;;;;;;87.07;8.40;;;16.70;93.20;;;;;;5021579;28;20021;-59
2021/10/05 10:53:55;;;;;;;63.95;8.07;;;16.80;93.30;;;;;;5016203;28;20094;-59
2021/10/05 10:56:32;;;;;;;78.05;8.48;;;16.70;93.30;;;;;;5014251;28;20060;-58
2021/10/05 10:58:59;;;;;;;53.67;6.10;;;16.80;93.20;;;;;;5018150;28;20044;-62
2021/10/05 11:01:58;;;;;;;48.85;6.32;;;16.80;93.00;;;;;;5017689;28;20178;-59
2021/10/05 11:04:24;;;;;;;47.67;4.63;;;16.80;92.90;;;;;;5016521;28;20029;-59
2021/10/05 11:06:51;;;;;;;59.20;5.35;;;16.80;92.70;;;;;;5017721;28;20049;-59
2021/10/05 11:09:17;;;;;;;58.88;6.78;;;16.80;92.50;;;;;;5020961;28;20204;-62
2021/10/05 11:11:48;;;;;;;38.60;5.20;;;16.90;92.50;;;;;;5019421;28;20499;-61
2021/10/05 11:14:22;;;;;;;50.17;6.40;;;16.90;92.50;;;;;;5017221;28;20469;-61
2021/10/05 11:16:55;;;;;;;49.22;4.82;;;16.90;92.40;;;;;;5020838;28;20116;-63
2021/10/05 11:19:20;;;;;;;53.35;5.95;;;16.90;92.30;;;;;;5017510;28;20071;-60
2021/10/05 11:21:48;;;;;;;38.08;4.50;;;16.90;92.40;;;;;;5017674;28;20045;-61
2021/10/05 11:24:14;;;;;;;37.80;4.95;;;16.90;92.30;;;;;;5018655;28;20022;-61
2021/10/05 11:26:49;;;;;;;30.02;4.53;;;16.90;92.20;;;;;;5017807;28;20080;-61
2021/10/05 11:29:25;;;;;;;36.55;4.90;;;16.90;92.30;;;;;;5016157;28;20077;-60
2021/10/05 11:31:56;;;;;;;36.60;4.57;;;16.90;92.30;;;;;;4993588;28;20140;-61
2021/10/05 11:34:21;;;;;;;28.50;4.80;;;16.90;92.20;;;;;;5015491;28;20049;-60
2021/10/05 11:36:48;;;;;;;49.75;5.18;;;17.00;92.40;;;;;;4997965;28;20107;-61
2021/10/05 11:39:24;;;;;;;39.17;4.60;;;17.00;92.40;;;;;;5016937;28;20591;-61
2021/10/05 11:42:09;;;;;;;47.67;5.07;;;17.00;92.30;;;;;;5014596;28;20042;-61
2021/10/05 11:44:39;;;;;;;50.30;4.63;;;17.00;92.20;;;;;;5014576;28;20575;-61
2021/10/05 11:47:05;;;;;;;41.97;5.57;;;17.00;92.30;;;;;;5013859;28;20284;-60
2021/10/05 11:49:35;;;;;;;49.95;5.13;;;17.10;92.30;;;;;;5019038;28;20079;-62
2021/10/05 11:52:01;;;;;;;35.08;4.88;;;17.10;92.20;;;;;;5019533;28;20025;-61
2021/10/05 11:54:28;;;;;;;43.63;4.32;;;17.10;92.10;;;;;;5011497;28;20037;-61
2021/10/05 11:56:54;;;;;;;33.85;4.35;;;17.10;92.10;;;;;;5012078;28;20148;-60
2021/10/05 11:59:21;;;;;;;33.35;4.78;;;17.10;92.00;;;;;;5019717;28;20060;-62
2021/10/05 12:01:47;;;;;;;42.00;4.20;;;17.10;92.10;;;;;;5016036;28;20060;-60
2021/10/05 12:04:13;;;;;;;32.45;4.55;;;17.10;92.00;;;;;;5016325;28;20033;-61
2021/10/05 12:06:39;;;;;;;25.17;3.90;;;17.10;91.90;;;;;;5017878;28;20575;-61
2021/10/05 12:09:05;;;;;;;39.08;4.15;;;17.20;92.00;;;;;;5013585;28;20190;-61
2021/10/05 12:11:43;;;;;;;41.95;5.10;;;17.20;91.90;;;;;;5017869;28;20026;-61
2021/10/05 12:14:10;;;;;;;32.78;4.53;;;17.20;92.00;;;;;;5011413;28;20517;-61
2021/10/05 12:16:35;;;;;;;29.80;3.72;;;17.20;91.90;;;;;;5015463;28;20490;-61
2021/10/05 12:19:02;;;;;;;32.60;4.18;;;17.20;91.90;;;;;;5014889;28;20033;-61
2021/10/05 12:21:27;;;;;;;44.30;4.18;;;17.20;91.90;;;;;;5015477;28;20587;-61
2021/10/05 12:23:55;;;;;;;61.78;6.47;;;17.20;91.80;;;;;;5016830;28;20032;-61
2021/10/05 12:26:20;;;;;;;48.95;5.15;;;17.20;91.90;;;;;;4999469;28;20048;-60
2021/10/05 12:29:00;;;;;;;38.03;5.53;;;17.20;91.90;;;;;;5009276;28;20657;-62
2021/10/05 12:31:28;;;;;;;43.30;5.50;;;17.30;91.80;;;;;;5015312;28;20030;-61
2021/10/05 12:34:03;;;;;;;42.72;6.05;;;17.30;91.90;;;;;;5013826;28;20318;-61
2021/10/05 12:36:29;;;;;;;39.80;4.60;;;17.30;91.90;;;;;;5015086;28;20037;-61
2021/10/05 12:38:55;;;;;;;47.83;4.55;;;17.30;91.90;;;;;;5014807;28;20030;-62
2021/10/05 12:41:21;;;;;;;32.35;4.55;;;17.30;91.90;;;;;;5018365;28;20394;-61